• Join FlightAware (Why Join?)
  • Login
  • US Flag 
10:25AM EDT


 

Airport Tracker/Info


-or-


 

Live Flight TrackerFlight Track Log ✈ DAL1981 ✈ 13-May-2013 ✈ KALB - KATL

Flight Track Log - Related Links

Times and Time Zones

All times are in EDT time to prevent confusion due to time zone crossing. See the DAL1981 flight status page for this flight to view local times or setup timezone preferences in your user account.

Time Position Orientation Groundspeed Altitude Reporting Facility
EDT Latitude Longitude Course Direction KTS MPH feet Rate Location/Type
06:15AM 42.7714 -73.8092 180° South 165 190 1,500  Level Boston Center
06:16AM 42.8208 -73.8583 324° Northwest 226 260 3,800 2,520 Climbing Boston Center
06:17AM 42.8475 -73.9042 308° West 243 280 6,400 3,060 Climbing Boston Center
06:18AM 42.5295 -74.1092 200° South  Level Estimated
06:18AM 42.8944 -73.9706 314° West 250 288 9,300  Level Boston Center
06:19AM 42.4561 -74.2111 198° South  Level Estimated
06:19AM 42.9203 -74.0647 291° West 245 282 10,400  Level Boston Center
06:20AM 42.3678 -74.1339 147° Southeast  Level FlightAware Approximate
06:20AM 42.9189 -74.1639 269° West 268 308 11,600  Level Boston Center
06:21AM 42.2951 -74.2363 180° South  Level Estimated
06:21AM 42.8692 -74.2758 239° Southwest 313 360 13,600  Level Boston Center
06:22AM 42.7789 -74.3156 198° South 349 402 16,100 2,520 Climbing Boston Center
06:23AM 42.6589 -74.2583 161° South 356 410 18,700 2,220 Climbing Boston Center
06:24AM 42.5597 -74.2103 160° South 386 444 20,600 1,920 Climbing Boston Center
06:25AM 42.4439 -74.1536 160° South 416 479 22,600 1,740 Climbing Boston Center
06:26AM 42.3281 -74.0914 158° South 438 504 24,500 1,680 Climbing Boston Center
06:27AM 42.1886 -74.0681 173° South 435 501 26,400 1,740 Climbing Boston Center
06:28AM 42.0761 -74.0708 181° South 420 483 28,000 780 Climbing Boston Center
06:29AM 41.9675 -74.0764 182° South 409 471 28,000  Level Boston Center
06:30AM 41.8589 -74.0903 185° South 404 465 28,000  Level Boston Center
06:31AM 41.7581 -74.1433 201° Southwest 366 421 28,000  Level Boston Center
06:32AM 41.6675 -74.2131 210° Southwest 371 427 28,000  Level Boston Center
06:35AM 41.4672 -74.3675 210° Southwest 382 440 28,000  Level New York Center
06:36AM 41.3756 -74.4314 208° Southwest 382 440 28,000  Level New York Center
06:37AM 41.2839 -74.4983 209° Southwest 382 440 28,000  Level New York Center
06:38AM 41.1925 -74.5622 208° Southwest 382 440 28,000 -60 Level New York Center
06:39AM 41.1028 -74.6314 210° Southwest 382 440 27,900  Descending New York Center
06:40AM 41.0131 -74.6978 209° Southwest 377 434 28,000  Climbing New York Center
06:41AM 40.9214 -74.7611 208° Southwest 377 434 28,000  Level New York Center
06:42AM 40.8339 -74.8219 208° Southwest 377 434 28,000  Level New York Center
06:43AM 40.7278 -74.8156 177° South 363 418 28,000  Level New York Center
06:44AM 40.6200 -74.8011 174° South 372 428 28,000  Level New York Center
06:45AM 40.5233 -74.8200 188° South 373 429 28,000  Level New York Center
06:46AM 40.4661 -74.9094 230° Southwest 312 359 28,000  Level New York Center
06:47AM 40.4289 -75.0189 246° West 312 359 28,000  Level New York Center
06:48AM 40.3897 -75.1228 244° Southwest 317 365 28,000  Level New York Center
06:49AM 40.3481 -75.2344 244° Southwest 328 377 28,000  Level New York Center
06:50AM 40.3039 -75.3486 243° Southwest 342 394 28,000  Level New York Center
06:51AM 40.2622 -75.4603 244° Southwest 347 399 28,000  Level New York Center
06:52AM 40.2178 -75.5769 244° Southwest 352 405 28,000  Level New York Center
06:53AM 40.1633 -75.6817 236° Southwest 357 411 28,000 -60 Level New York Center
06:54AM 40.1111 -75.7892 238° Southwest 357 411 27,900  Descending New York Center
06:55AM 40.0564 -75.8964 236° Southwest 357 411 28,000  Climbing New York Center
06:56AM 39.9931 -76.0111 234° Southwest 357 411 28,000  Level New York Center
06:57AM 39.9281 -76.1092 229° Southwest 362 417 28,000  Level New York Center
06:59AM 39.8136 -76.2858 230° Southwest 358 412 28,000 -60 Level Washington Center
07:00AM 39.7506 -76.3850 230° Southwest 358 412 27,900  Descending Washington Center
07:01AM 39.6875 -76.4839 230° Southwest 358 412 28,000  Climbing Washington Center
07:02AM 39.6158 -76.5800 226° Southwest 363 418 28,000  Level Washington Center
07:03AM 39.5503 -76.6789 229° Southwest 363 418 28,000  Level Washington Center
07:04AM 39.4892 -76.7775 231° Southwest 358 412 28,000  Level Washington Center
07:05AM 39.4256 -76.8758 230° Southwest 358 412 28,000  Level Washington Center
07:06AM 39.3597 -76.9792 231° Southwest 363 418 28,000  Level Washington Center
07:07AM 39.2981 -77.0747 230° Southwest 363 418 28,000  Level Washington Center
07:08AM 39.2322 -77.1753 230° Southwest 363 418 28,000  Level Washington Center
07:09AM 39.1664 -77.2728 229° Southwest 363 418 28,000  Level Washington Center
07:10AM 39.0983 -77.3756 230° Southwest 368 423 28,000  Level Washington Center
07:11AM 39.0342 -77.4728 230° Southwest 368 423 28,000  Level Washington Center
07:12AM 38.9681 -77.5728 230° Southwest 373 429 28,000  Level Washington Center
07:13AM 38.8953 -77.6800 229° Southwest 373 429 28,000  Level Washington Center
07:14AM 38.8333 -77.7717 229° Southwest 373 429 28,000  Level Washington Center
07:15AM 38.7581 -77.8811 229° Southwest 379 436 28,000  Level Washington Center
07:16AM 38.6897 -77.9775 228° Southwest 379 436 28,000  Level Washington Center
07:17AM 38.6231 -78.0764 229° Southwest 374 430 28,000  Level Washington Center
07:18AM 38.5542 -78.1775 229° Southwest 374 430 28,000  Level Washington Center
07:19AM 38.4875 -78.2733 228° Southwest 374 430 28,000  Level Washington Center
07:20AM 38.4206 -78.3742 230° Southwest 374 430 28,000  Level Washington Center
07:21AM 38.3514 -78.4722 228° Southwest 374 430 28,000  Level Washington Center
07:22AM 38.2822 -78.5703 228° Southwest 374 430 28,000  Level Washington Center
07:23AM 38.2194 -78.6656 230° Southwest 374 430 28,000  Level Washington Center
07:24AM 38.1567 -78.7553 228° Southwest 374 430 28,000  Level Washington Center
07:25AM 38.0872 -78.8525 228° Southwest 374 430 28,000  Level Washington Center
07:26AM 38.0200 -78.9472 228° Southwest 374 430 28,000  Level Washington Center
07:27AM 37.9506 -79.0469 229° Southwest 374 430 28,000  Level Washington Center
07:28AM 37.8742 -79.1539 228° Southwest 374 430 28,000  Level Washington Center
07:29AM 37.8047 -79.2478 227° Southwest 374 430 28,000  Level Washington Center
07:30AM 37.7328 -79.3467 227° Southwest 374 430 28,000  Level Washington Center
07:31AM 37.6697 -79.4328 227° Southwest 379 436 28,000  Level Washington Center
07:32AM 37.5911 -79.5417 228° Southwest 384 442 28,000  Level Washington Center
07:33AM 37.5189 -79.6400 227° Southwest 384 442 28,000  Level Washington Center
07:34AM 37.4467 -79.7356 226° Southwest 384 442 28,000  Level Washington Center
07:35AM 37.3742 -79.8386 229° Southwest 394 453 28,000  Level Washington Center
07:36AM 37.3083 -79.9292 228° Southwest 394 453 28,000  Level Washington Center
07:37AM 37.2383 -80.0242 227° Southwest 394 453 28,000  Level Washington Center
07:38AM 37.1456 -80.1436 226° Southwest 395 455 28,000  Level Atlanta Center
07:39AM 37.0814 -80.2300 227° Southwest 395 455 28,000  Level Atlanta Center
07:40AM 37.0094 -80.3269 227° Southwest 385 443 28,000  Level Atlanta Center
07:41AM 36.9372 -80.4239 227° Southwest 385 443 28,000  Level Atlanta Center
07:42AM 36.8650 -80.5206 227° Southwest 385 443 28,000  Level Atlanta Center
07:43AM 36.7825 -80.6253 225° Southwest 385 443 28,000  Level Atlanta Center
07:44AM 36.7122 -80.7242 228° Southwest 380 437 28,000  Level Atlanta Center
07:45AM 36.6394 -80.8178 226° Southwest 380 437 28,000  Level Atlanta Center
07:46AM 36.5731 -80.9083 228° Southwest 386 444 28,000  Level Atlanta Center
07:47AM 36.5006 -81.0042 227° Southwest 380 437 28,000  Level Atlanta Center
07:48AM 36.4278 -81.1025 227° Southwest 385 443 28,000  Level Atlanta Center
07:49AM 36.3528 -81.2006 226° Southwest 385 443 28,000  Level Atlanta Center
07:50AM 36.2781 -81.2983 227° Southwest 385 443 28,000  Level Atlanta Center
07:51AM 36.2050 -81.3936 226° Southwest 380 437 28,000  Level Atlanta Center
07:52AM 36.1300 -81.4936 227° Southwest 390 449 28,000  Level Atlanta Center
07:53AM 36.0547 -81.5911 226° Southwest 390 449 28,000  Level Atlanta Center
07:54AM 35.9794 -81.6858 226° Southwest 390 449 28,000  Level Atlanta Center
07:55AM 35.9019 -81.7881 227° Southwest 390 449 28,000  Level Atlanta Center
07:56AM 35.8206 -81.8928 226° Southwest 395 455 28,000  Level Atlanta Center
07:57AM 35.7408 -81.9919 225° Southwest 395 455 28,000  Level Atlanta Center
07:58AM 35.6589 -82.0833 222° Southwest 406 467 28,000  Level Atlanta Center
07:59AM 35.5789 -82.1747 223° Southwest 401 461 28,000  Level Atlanta Center
08:00AM 35.4989 -82.2683 224° Southwest 401 461 28,000  Level Atlanta Center
08:01AM 35.4250 -82.3542 223° Southwest 381 438 28,000 -120 Level Atlanta Center
08:02AM 35.3511 -82.4372 223° Southwest 375 432 27,800 -420 Descending Atlanta Center
08:03AM 35.2728 -82.5225 222° Southwest 370 426 27,200 -660 Descending Atlanta Center
08:04AM 35.2050 -82.6025 224° Southwest 370 426 26,500 -660 Descending Atlanta Center
08:05AM 35.1267 -82.6928 223° Southwest 375 432 25,900 -600 Descending Atlanta Center
08:06AM 35.0464 -82.7831 223° Southwest 386 444 25,300 -600 Descending Atlanta Center
08:07AM 34.9658 -82.8703 222° Southwest 386 444 24,700 -600 Descending Atlanta Center
08:08AM 34.8769 -82.9678 222° Southwest 391 450 24,100 -360 Descending Atlanta Center
08:09AM 34.7983 -83.0572 223° Southwest 391 450 24,000 -60 Descending Atlanta Center
08:10AM 34.7258 -83.1392 223° Southwest 397 457 24,000  Level Atlanta Center
08:11AM 34.6472 -83.2283 223° Southwest 397 457 24,000 -240 Level Atlanta Center
08:12AM 34.5664 -83.3147 221° Southwest 392 451 23,600 -600 Descending Atlanta Center
08:13AM 34.4875 -83.4036 223° Southwest 392 451 22,900 -1,740 Descending Atlanta Center
08:14AM 34.4067 -83.4875 221° Southwest 392 451 20,200 -2,640 Descending Atlanta Center
08:15AM 34.3339 -83.5733 224° Southwest 381 438 17,700 -2,400 Descending Atlanta Center
08:16AM 34.2508 -83.6644 222° Southwest 376 433 15,400 -2,460 Descending Atlanta Center
08:17AM 34.1758 -83.7475 223° Southwest 369 425 12,800 -1,740 Descending Atlanta Center
08:18AM 34.1072 -83.8231 222° Southwest 364 419 12,000 -420 Descending Atlanta Center
08:19AM 34.0489 -83.8883 223° Southwest 320 368 12,000 -600 Level Atlanta Center
08:19AM 34.0167 -83.9167 216° Southwest 281 323 11,200 -1,740 Descending Atlanta TRACON
08:20AM 33.9500 -83.9667 212° Southwest 289 333 9,500 -1,140 Descending Atlanta TRACON
08:21AM 33.8667 -83.9667 180° South 299 344 9,000 -360 Descending Atlanta TRACON
08:22AM 33.8297 -83.9664 180° South 296 341 9,000 -360 Level Atlanta Center
08:23AM 33.7461 -83.9664 180° South 296 341 8,500 -900 Descending Atlanta Center
08:24AM 33.6772 -83.9864 194° South 291 335 7,200 -1,020 Descending Atlanta Center
08:25AM 33.6314 -84.0389 224° Southwest 246 283 6,500 -600 Descending Atlanta Center
08:26AM 33.6314 -84.1111 270° West 211 243 6,000 -720 Descending Atlanta Center
08:26AM 33.6333 -84.1500 273° West 218 251 5,500 -1,260 Descending Atlanta TRACON
08:27AM 33.6333 -84.2167 270° West 216 249 4,300 -1,380 Descending Atlanta TRACON